Time;durP1;ratioP1;P1;durP2;ratioP2;P2;SDS_P1;SDS_P2;PMS_P1;PMS_P2;Temp;Humidity;BMP_temperature;BMP_pressure;BME280_temperature;BME280_humidity;BME280_pressure;Samples;Min_cycle;Max_cycle;Signal;HPM_P1;HPM_P2
2020/12/21 00:00:16;;;;;;;54.17;16.88;;;1.80;88.80;;;;;;5053336;28;20029;-75
2020/12/21 00:02:45;;;;;;;61.13;29.42;;;1.80;88.70;;;;;;5053566;28;20029;-75
2020/12/21 00:05:11;;;;;;;47.30;18.92;;;1.80;88.80;;;;;;5053471;28;20033;-75
2020/12/21 00:07:36;;;;;;;50.63;19.00;;;1.80;88.70;;;;;;5053754;28;20025;-75
2020/12/21 00:10:05;;;;;;;62.30;28.38;;;1.80;88.60;;;;;;5053445;28;20033;-75
2020/12/21 00:12:32;;;;;;;59.95;22.90;;;1.90;88.60;;;;;;5052021;28;20130;-76
2020/12/21 00:14:58;;;;;;;88.07;32.95;;;1.90;88.50;;;;;;5052171;28;20021;-76
2020/12/21 00:17:24;;;;;;;82.18;30.85;;;1.80;88.60;;;;;;5053136;28;20104;-76
2020/12/21 00:19:50;;;;;;;95.97;35.47;;;1.80;89.20;;;;;;5053325;28;20099;-76
2020/12/21 00:22:18;;;;;;;50.00;25.27;;;1.80;88.40;;;;;;5052140;28;20459;-76
2020/12/21 00:24:45;;;;;;;34.22;15.45;;;1.80;88.30;;;;;;5052319;28;20115;-76
2020/12/21 00:27:10;;;;;;;39.08;14.10;;;1.80;88.30;;;;;;5052059;28;20036;-76
2020/12/21 00:29:36;;;;;;;89.68;29.85;;;1.80;88.40;;;;;;5053493;28;20029;-76
2020/12/21 00:32:02;;;;;;;53.10;21.88;;;1.70;88.80;;;;;;5053254;28;20421;-76
2020/12/21 00:34:28;;;;;;;114.65;44.70;;;1.70;88.70;;;;;;5053156;28;20465;-76
2020/12/21 00:36:54;;;;;;;81.60;28.95;;;1.70;88.80;;;;;;5053297;28;20057;-76
2020/12/21 00:39:22;;;;;;;86.15;23.35;;;1.70;88.90;;;;;;5051911;28;20021;-76
2020/12/21 00:41:48;;;;;;;68.82;21.20;;;1.70;88.90;;;;;;5053226;28;20025;-76
2020/12/21 00:44:14;;;;;;;105.57;21.00;;;1.60;88.80;;;;;;5051946;28;20028;-76
2020/12/21 00:46:40;;;;;;;52.45;16.20;;;1.60;88.90;;;;;;5053096;28;20033;-76
2020/12/21 00:49:07;;;;;;;118.35;18.98;;;1.60;88.90;;;;;;5085259;28;20082;-76
2020/12/21 00:51:34;;;;;;;117.85;19.77;;;1.60;88.70;;;;;;5053331;28;20028;-76
2020/12/21 00:54:00;;;;;;;69.80;17.48;;;1.60;88.70;;;;;;5053123;28;20054;-76
2020/12/21 00:56:26;;;;;;;136.85;21.83;;;1.60;88.60;;;;;;5052985;28;20025;-76
2020/12/21 00:58:52;;;;;;;170.70;20.20;;;1.60;89.20;;;;;;5054485;28;20036;-76
2020/12/21 01:01:22;;;;;;;93.70;17.83;;;1.60;89.00;;;;;;5056795;28;20024;-76
2020/12/21 01:03:48;;;;;;;67.80;17.15;;;1.60;89.10;;;;;;5055534;28;20021;-76
2020/12/21 01:06:15;;;;;;;206.93;20.90;;;1.60;89.10;;;;;;5056713;28;20017;-76
2020/12/21 01:08:43;;;;;;;116.30;21.00;;;1.60;89.50;;;;;;5055324;28;20513;-76
2020/12/21 01:11:16;;;;;;;112.25;17.15;;;1.50;89.70;;;;;;5056465;28;20443;-76
2020/12/21 01:13:43;;;;;;;114.30;19.05;;;1.50;89.20;;;;;;5056596;28;20021;-76
2020/12/21 01:16:10;;;;;;;85.45;17.40;;;1.50;89.30;;;;;;5055312;28;20352;-76
2020/12/21 01:18:36;;;;;;;55.00;16.08;;;1.50;89.20;;;;;;5056464;28;20032;-76
2020/12/21 01:21:03;;;;;;;35.22;15.05;;;1.50;89.20;;;;;;5055124;28;20440;-76
2020/12/21 01:23:28;;;;;;;32.97;13.77;;;1.40;89.20;;;;;;5056474;28;20052;-76
2020/12/21 01:25:54;;;;;;;37.78;14.13;;;1.40;89.20;;;;;;5055042;28;20048;-76
2020/12/21 01:28:20;;;;;;;32.60;13.25;;;1.40;89.10;;;;;;5056374;28;20517;-76
2020/12/21 01:30:46;;;;;;;42.22;16.40;;;1.50;88.80;;;;;;5056218;28;20356;-76
2020/12/21 01:33:12;;;;;;;40.08;14.25;;;1.40;89.10;;;;;;5056691;28;20021;-77
2020/12/21 01:35:39;;;;;;;32.65;13.75;;;1.40;89.40;;;;;;5054684;28;20054;-76
2020/12/21 01:38:05;;;;;;;35.67;14.48;;;1.40;89.30;;;;;;5054850;28;20025;-76
2020/12/21 01:40:31;;;;;;;26.52;10.95;;;1.50;89.30;;;;;;5056095;28;20486;-76
2020/12/21 01:42:57;;;;;;;27.50;12.00;;;1.50;89.30;;;;;;5055964;28;20036;-76
2020/12/21 01:45:22;;;;;;;27.05;13.98;;;1.50;88.80;;;;;;5055754;28;20033;-76
2020/12/21 01:47:49;;;;;;;28.42;12.82;;;1.50;88.70;;;;;;5056223;28;20028;-76
2020/12/21 01:50:14;;;;;;;34.72;15.02;;;1.50;88.70;;;;;;5055920;28;20029;-76
2020/12/21 01:52:41;;;;;;;34.90;14.00;;;1.50;88.60;;;;;;5055809;28;20033;-76
2020/12/21 01:55:07;;;;;;;33.45;14.27;;;1.50;88.70;;;;;;5055814;28;20414;-76
2020/12/21 01:57:33;;;;;;;31.77;13.68;;;1.40;88.90;;;;;;5055859;28;20079;-76
2020/12/21 02:00:01;;;;;;;29.33;14.32;;;1.40;88.80;;;;;;5056040;28;20033;-76
2020/12/21 02:02:27;;;;;;;25.90;11.82;;;1.50;88.60;;;;;;5055584;28;20108;-76
2020/12/21 02:04:53;;;;;;;86.35;21.98;;;1.50;88.50;;;;;;5056109;28;20529;-76
2020/12/21 02:07:19;;;;;;;73.75;19.40;;;1.50;88.50;;;;;;5055518;28;20024;-76
2020/12/21 02:09:45;;;;;;;57.88;18.67;;;1.50;88.60;;;;;;5055476;28;20050;-76
2020/12/21 02:12:11;;;;;;;135.48;21.13;;;1.40;89.00;;;;;;5055395;28;20045;-76
2020/12/21 02:14:37;;;;;;;58.08;17.00;;;1.40;88.90;;;;;;5055745;28;20017;-76
2020/12/21 02:17:04;;;;;;;61.60;17.23;;;1.40;88.90;;;;;;5055733;28;20463;-76
2020/12/21 02:19:29;;;;;;;67.97;16.65;;;1.40;88.90;;;;;;5055430;28;20057;-76
2020/12/21 02:21:55;;;;;;;62.35;15.82;;;1.40;88.90;;;;;;5055291;28;20071;-76
2020/12/21 02:24:21;;;;;;;82.03;18.33;;;1.40;89.20;;;;;;5055621;28;20379;-76
2020/12/21 02:26:47;;;;;;;161.23;23.60;;;1.30;89.40;;;;;;5055250;28;20036;-76
2020/12/21 02:29:12;;;;;;;101.97;17.23;;;1.30;89.60;;;;;;5055099;28;20025;-76
2020/12/21 02:31:38;;;;;;;85.05;16.35;;;1.30;89.40;;;;;;5055424;28;20021;-76
2020/12/21 02:34:04;;;;;;;141.05;17.75;;;1.40;89.40;;;;;;5055404;28;20021;-76
2020/12/21 02:36:30;;;;;;;58.30;15.13;;;1.30;89.40;;;;;;5053745;28;20493;-76
2020/12/21 02:38:55;;;;;;;75.10;15.20;;;1.40;89.50;;;;;;5055002;28;20379;-76
2020/12/21 02:41:21;;;;;;;51.10;14.70;;;1.40;89.70;;;;;;5054916;28;20090;-76
2020/12/21 02:43:47;;;;;;;79.82;16.48;;;1.40;89.70;;;;;;5055345;28;20028;-76
2020/12/21 02:46:15;;;;;;;152.80;24.42;;;1.40;89.70;;;;;;5055172;28;20463;-76
2020/12/21 02:48:41;;;;;;;110.97;18.55;;;1.30;90.10;;;;;;5053568;28;20360;-76
2020/12/21 02:51:07;;;;;;;90.20;17.17;;;1.30;89.90;;;;;;5054766;28;20100;-76
2020/12/21 02:53:32;;;;;;;205.65;22.27;;;1.30;89.90;;;;;;5054777;28;20099;-76
2020/12/21 02:55:58;;;;;;;98.57;17.77;;;1.30;90.30;;;;;;5053326;28;20083;-75
2020/12/21 02:58:24;;;;;;;93.18;16.27;;;1.20;90.10;;;;;;5053353;28;20045;-76
2020/12/21 03:00:50;;;;;;;154.00;19.33;;;1.20;90.30;;;;;;5054607;28;20021;-76
2020/12/21 03:03:16;;;;;;;98.22;20.10;;;1.20;90.40;;;;;;5054378;28;20033;-76
2020/12/21 03:05:42;;;;;;;86.03;18.13;;;1.10;90.50;;;;;;5054494;28;20043;-76
2020/12/21 03:08:10;;;;;;;99.15;17.55;;;1.10;90.40;;;;;;5054432;28;20475;-76
2020/12/21 03:10:37;;;;;;;98.32;17.55;;;1.20;90.40;;;;;;5054626;28;20048;-76
2020/12/21 03:13:03;;;;;;;191.07;22.63;;;1.20;90.40;;;;;;5054343;28;20049;-76
2020/12/21 03:15:29;;;;;;;204.82;22.20;;;1.20;90.50;;;;;;5054135;28;20110;-76
2020/12/21 03:17:55;;;;;;;122.88;17.67;;;1.20;90.50;;;;;;5054246;28;20486;-76
2020/12/21 03:20:20;;;;;;;83.78;16.60;;;1.20;90.30;;;;;;5054292;28;20111;-76
2020/12/21 03:22:49;;;;;;;180.77;21.08;;;1.20;90.40;;;;;;5052740;28;20032;-76
2020/12/21 03:25:16;;;;;;;139.70;19.73;;;1.20;90.40;;;;;;5054395;28;20036;-76
2020/12/21 03:27:42;;;;;;;107.20;17.90;;;1.20;90.60;;;;;;5054145;28;20471;-76
2020/12/21 03:30:09;;;;;;;108.03;16.88;;;1.20;90.50;;;;;;5053896;28;20116;-76
2020/12/21 03:32:35;;;;;;;65.78;11.63;;;1.20;90.50;;;;;;5053853;28;20099;-76
2020/12/21 03:35:03;;;;;;;270.10;23.58;;;1.20;90.30;;;;;;5052681;28;20029;-76
2020/12/21 03:37:32;;;;;;;96.10;17.25;;;1.30;90.50;;;;;;5053885;28;20459;-76
2020/12/21 03:40:02;;;;;;;93.65;16.58;;;1.20;90.40;;;;;;5054230;28;20028;-77
2020/12/21 03:42:28;;;;;;;;;;;1.20;90.50;;;;;;5054364;28;20043;-77
2020/12/21 03:44:54;;;;;;;110.93;16.27;;;1.20;90.80;;;;;;5054085;28;20365;-77
2020/12/21 03:47:19;;;;;;;97.78;16.60;;;1.30;90.60;;;;;;5052354;28;20031;-76
2020/12/21 03:49:45;;;;;;;242.77;22.92;;;1.20;90.60;;;;;;5053798;28;20463;-77
2020/12/21 03:52:11;;;;;;;132.63;18.25;;;1.20;90.90;;;;;;5053578;28;20029;-76
2020/12/21 03:54:37;;;;;;;108.72;16.48;;;1.20;90.90;;;;;;5054241;28;20021;-77
2020/12/21 03:57:02;;;;;;;144.00;17.55;;;1.30;90.70;;;;;;5052297;28;20033;-77
2020/12/21 03:59:28;;;;;;;84.55;17.27;;;1.30;90.60;;;;;;5053962;28;20029;-77
2020/12/21 04:01:54;;;;;;;87.30;17.42;;;1.30;90.80;;;;;;5053605;28;20040;-77
2020/12/21 04:04:19;;;;;;;98.28;16.45;;;1.30;90.80;;;;;;5052297;28;20403;-77
2020/12/21 04:06:45;;;;;;;114.82;19.77;;;1.30;90.70;;;;;;5052303;28;20029;-77
2020/12/21 04:09:11;;;;;;;238.98;24.88;;;1.30;90.60;;;;;;5053323;28;20021;-77
2020/12/21 04:11:36;;;;;;;161.00;25.90;;;1.40;90.60;;;;;;5053347;28;20048;-77
2020/12/21 04:14:02;;;;;;;172.50;31.25;;;1.30;90.60;;;;;;5053714;28;20025;-76
2020/12/21 04:16:28;;;;;;;162.23;31.63;;;1.20;90.60;;;;;;5053410;28;20467;-76
2020/12/21 04:18:54;;;;;;;287.63;40.55;;;1.20;90.50;;;;;;5053373;28;20017;-77
2020/12/21 04:21:19;;;;;;;160.77;31.83;;;1.20;90.70;;;;;;5053294;28;20049;-77
2020/12/21 04:23:45;;;;;;;163.70;32.15;;;1.10;90.60;;;;;;5053334;28;20042;-77
2020/12/21 04:26:11;;;;;;;158.82;35.15;;;1.10;90.60;;;;;;5053358;28;20108;-77
2020/12/21 04:28:37;;;;;;;157.10;32.25;;;1.10;90.70;;;;;;5053070;28;20024;-76
2020/12/21 04:31:04;;;;;;;172.70;33.28;;;1.10;90.60;;;;;;5053210;28;20356;-76
2020/12/21 04:33:30;;;;;;;190.93;36.13;;;1.10;90.60;;;;;;5052182;28;20090;-76
2020/12/21 04:35:56;;;;;;;174.45;33.95;;;1.10;90.60;;;;;;5057099;28;20046;-76
2020/12/21 04:38:22;;;;;;;191.60;33.72;;;1.00;90.50;;;;;;5057262;28;20055;-77
2020/12/21 04:40:56;;;;;;;134.25;31.23;;;1.10;90.50;;;;;;5056941;28;20411;-77
2020/12/21 04:43:24;;;;;;;155.48;31.05;;;1.10;90.50;;;;;;5056866;28;20075;-76
2020/12/21 04:45:54;;;;;;;168.55;33.70;;;1.10;90.50;;;;;;5056988;28;20124;-76
2020/12/21 04:48:22;;;;;;;154.70;34.15;;;1.10;90.40;;;;;;5056873;28;20021;-77
2020/12/21 04:50:53;;;;;;;137.80;31.70;;;1.10;90.40;;;;;;5056996;28;20047;-76
2020/12/21 04:53:20;;;;;;;130.85;36.55;;;1.10;90.40;;;;;;5056005;28;20028;-76
2020/12/21 04:55:47;;;;;;;127.57;33.67;;;1.00;90.00;;;;;;5056026;28;20726;-77
2020/12/21 04:58:13;;;;;;;126.43;35.25;;;1.00;90.10;;;;;;5055908;28;20021;-76
2020/12/21 05:00:39;;;;;;;121.25;34.00;;;1.00;90.00;;;;;;5056636;28;20155;-76
2020/12/21 05:03:06;;;;;;;107.00;33.45;;;0.90;89.80;;;;;;5055494;28;20028;-76
2020/12/21 05:05:39;;;;;;;111.25;34.38;;;0.90;89.90;;;;;;5056508;28;20025;-76
2020/12/21 05:08:10;;;;;;;82.18;31.42;;;0.90;90.00;;;;;;5056601;28;20039;-77
2020/12/21 05:10:41;;;;;;;93.05;31.33;;;0.80;88.20;;;;;;5055216;28;20032;-76
2020/12/21 05:13:08;;;;;;;82.78;29.83;;;0.80;89.20;;;;;;5056123;28;20049;-76
2020/12/21 05:15:33;;;;;;;78.60;29.20;;;0.80;88.60;;;;;;5056580;28;20017;-76
2020/12/21 05:18:07;;;;;;;69.75;27.33;;;0.80;89.40;;;;;;5056170;28;20383;-77
2020/12/21 05:20:34;;;;;;;63.78;26.17;;;0.80;88.40;;;;;;5056180;28;20053;-75
2020/12/21 05:23:02;;;;;;;65.50;26.65;;;0.80;88.60;;;;;;5056035;28;20037;-76
2020/12/21 05:25:27;;;;;;;64.07;25.83;;;0.80;87.90;;;;;;5056334;28;20044;-76
2020/12/21 05:27:53;;;;;;;62.45;25.08;;;0.70;87.50;;;;;;5054722;28;20470;-77
2020/12/21 05:30:19;;;;;;;60.17;25.02;;;0.80;88.40;;;;;;5054783;28;20079;-75
2020/12/21 05:32:45;;;;;;;60.58;24.00;;;0.80;87.80;;;;;;5056134;28;20074;-76
2020/12/21 05:35:11;;;;;;;60.10;25.63;;;0.80;88.60;;;;;;5056257;28;20028;-75
2020/12/21 05:37:41;;;;;;;61.05;24.88;;;0.80;88.30;;;;;;5055964;28;20021;-76
2020/12/21 05:40:08;;;;;;;62.20;26.35;;;0.80;87.80;;;;;;5055746;28;20048;-76
2020/12/21 05:42:36;;;;;;;60.67;25.67;;;0.80;87.60;;;;;;5056118;28;20025;-76
2020/12/21 05:45:07;;;;;;;59.78;25.10;;;0.70;87.30;;;;;;5055608;28;20025;-76
2020/12/21 05:47:34;;;;;;;64.63;26.63;;;0.70;87.40;;;;;;5055813;28;20021;-76
2020/12/21 05:50:06;;;;;;;56.70;24.48;;;0.70;87.30;;;;;;5056117;28;20902;-76
2020/12/21 05:52:36;;;;;;;59.05;26.40;;;0.70;87.30;;;;;;5055745;28;20466;-75
2020/12/21 05:55:10;;;;;;;56.13;24.15;;;0.50;86.10;;;;;;5055866;28;20428;-75
2020/12/21 05:57:37;;;;;;;63.80;24.60;;;0.50;86.70;;;;;;5055741;28;20032;-75
2020/12/21 06:00:08;;;;;;;56.83;24.67;;;0.50;86.90;;;;;;5055678;28;20044;-74
2020/12/21 06:02:34;;;;;;;62.33;24.50;;;0.50;87.00;;;;;;5054451;28;20029;-75
2020/12/21 06:05:13;;;;;;;53.00;22.70;;;0.50;86.80;;;;;;5056069;28;20025;-76
2020/12/21 06:07:50;;;;;;;54.70;22.25;;;0.50;86.80;;;;;;5054464;28;20029;-76
2020/12/21 06:10:15;;;;;;;53.65;22.13;;;0.60;86.80;;;;;;5055602;28;20021;-76
2020/12/21 06:12:50;;;;;;;49.05;21.60;;;0.60;86.70;;;;;;5055169;28;20055;-75
2020/12/21 06:15:20;;;;;;;46.05;19.80;;;0.50;85.80;;;;;;5054365;28;20082;-77
2020/12/21 12:33:28;;;;;;;15.05;9.88;;;-1.60;79.40;;;;;;5071802;28;20388;-81
2020/12/21 12:35:53;;;;;;;15.35;9.95;;;-1.70;79.60;;;;;;5070893;28;20487;-82
2020/12/21 12:38:19;;;;;;;15.68;10.18;;;-1.70;80.60;;;;;;5071291;28;20371;-82
2020/12/21 12:40:45;;;;;;;14.80;10.20;;;-1.70;80.60;;;;;;5069595;28;20112;-80
2020/12/21 12:43:10;;;;;;;12.68;9.57;;;-1.70;79.80;;;;;;5070631;28;20025;-79
2020/12/21 12:45:36;;;;;;;14.27;9.95;;;-1.70;80.60;;;;;;5071109;28;20414;-79
2020/12/21 12:48:02;;;;;;;16.92;10.43;;;-1.70;80.60;;;;;;5071070;28;20025;-79
2020/12/21 12:50:27;;;;;;;17.73;11.27;;;-1.60;80.80;;;;;;5070650;28;20425;-79
2020/12/21 12:52:53;;;;;;;14.95;10.85;;;-1.60;80.40;;;;;;5069365;28;20021;-79
2020/12/21 12:55:19;;;;;;;16.30;11.52;;;-1.60;79.50;;;;;;5070710;28;20430;-80
2020/12/21 12:57:45;;;;;;;14.38;10.57;;;-1.70;79.90;;;;;;5070592;28;20383;-79
2020/12/21 13:00:10;;;;;;;15.20;10.63;;;-1.60;79.70;;;;;;5069323;28;20120;-79
2020/12/21 13:02:36;;;;;;;16.65;11.00;;;-1.60;79.90;;;;;;5069686;28;20036;-79
2020/12/21 13:05:02;;;;;;;14.23;10.43;;;-1.60;79.70;;;;;;5070407;28;20020;-79
2020/12/21 13:07:27;;;;;;;15.98;10.23;;;-1.50;80.00;;;;;;5070417;28;20028;-79
2020/12/21 13:09:53;;;;;;;16.45;10.50;;;-1.60;79.20;;;;;;5070467;28;20035;-79
2020/12/21 13:12:19;;;;;;;11.40;9.57;;;-1.60;78.80;;;;;;5070414;28;20028;-79
2020/12/21 13:14:45;;;;;;;13.65;10.50;;;-1.60;78.80;;;;;;5070249;28;20067;-79
2020/12/21 13:17:10;;;;;;;13.60;10.35;;;-1.60;78.50;;;;;;5070077;28;20017;-79
2020/12/21 13:19:36;;;;;;;13.95;10.50;;;-1.60;79.40;;;;;;5069975;28;20100;-80
2020/12/21 13:22:02;;;;;;;15.00;10.95;;;-1.60;79.20;;;;;;5070036;28;20382;-79
2020/12/21 13:24:28;;;;;;;13.25;9.95;;;-1.60;79.10;;;;;;5070059;28;20408;-80
2020/12/21 13:26:53;;;;;;;11.90;9.60;;;-1.50;79.10;;;;;;5085394;28;20024;-79
2020/12/21 13:29:19;;;;;;;13.43;10.07;;;-1.60;76.40;;;;;;5069942;28;20033;-79
2020/12/21 13:31:46;;;;;;;12.50;9.77;;;-1.70;78.50;;;;;;5069828;28;20135;-79
2020/12/21 13:34:12;;;;;;;14.57;9.70;;;-1.70;77.80;;;;;;5069714;28;20035;-79
2020/12/21 13:36:38;;;;;;;16.10;9.82;;;-1.70;78.10;;;;;;5085313;28;20190;-79
2020/12/21 13:39:03;;;;;;;12.38;9.70;;;-1.70;78.00;;;;;;5070013;28;20028;-79
2020/12/21 13:41:29;;;;;;;13.57;10.00;;;-1.60;78.90;;;;;;5069293;28;20025;-80
2020/12/21 13:43:55;;;;;;;12.77;9.70;;;-1.60;78.90;;;;;;5060947;28;20029;-80
2020/12/21 13:46:21;;;;;;;15.48;10.73;;;-1.60;77.80;;;;;;5056348;28;20021;-79
2020/12/21 13:48:46;;;;;;;12.90;9.35;;;-1.50;78.40;;;;;;5056521;28;20379;-79
2020/12/21 13:51:12;;;;;;;13.32;10.15;;;-1.60;78.60;;;;;;5071552;28;20029;-80
2020/12/21 13:53:38;;;;;;;13.25;10.00;;;-1.50;78.80;;;;;;5056258;28;20024;-80
2020/12/21 13:56:04;;;;;;;19.23;11.30;;;-1.50;78.80;;;;;;5056174;28;20098;-80
2020/12/21 17:49:59;;;;;;;9.70;5.93;;;-1.60;78.70;;;;;;5070813;28;20379;-80
2020/12/21 17:52:25;;;;;;;10.73;6.50;;;-1.60;79.00;;;;;;5069705;28;20090;-79
2020/12/21 17:54:50;;;;;;;11.52;6.20;;;-1.60;79.40;;;;;;5069330;28;20029;-80
2020/12/21 17:57:16;;;;;;;9.85;6.22;;;-1.60;79.50;;;;;;5070737;28;20090;-80
2020/12/21 17:59:42;;;;;;;8.90;6.32;;;-1.60;79.90;;;;;;5069411;28;20024;-79
2020/12/21 18:02:07;;;;;;;9.88;6.88;;;-1.50;80.20;;;;;;5069656;28;20025;-79
2020/12/21 18:04:35;;;;;;;9.77;6.18;;;-1.50;79.70;;;;;;5070740;28;20048;-79
2020/12/21 18:07:02;;;;;;;7.88;6.07;;;-1.50;78.90;;;;;;5069434;28;20035;-78
2020/12/21 18:09:28;;;;;;;8.82;5.93;;;-1.50;78.30;;;;;;5069183;28;20067;-79
2020/12/21 18:11:53;;;;;;;8.63;6.28;;;-1.40;79.30;;;;;;5070444;28;20017;-79
2020/12/21 18:14:19;;;;;;;8.90;6.07;;;-1.30;79.30;;;;;;5069307;28;20029;-79
2020/12/21 18:16:45;;;;;;;9.90;6.93;;;-1.30;78.70;;;;;;5069260;28;20471;-79
2020/12/21 18:19:10;;;;;;;13.20;7.80;;;-1.20;78.80;;;;;;5070561;28;20036;-79
2020/12/21 18:21:36;;;;;;;10.13;6.53;;;-1.20;79.20;;;;;;5070282;28;20029;-78
2020/12/21 18:24:02;;;;;;;9.65;7.10;;;-1.20;79.00;;;;;;5069285;28;20024;-79
2020/12/21 18:26:28;;;;;;;10.98;7.35;;;-1.10;79.00;;;;;;5070658;28;20024;-79
2020/12/21 18:28:53;;;;;;;9.93;7.13;;;-1.10;78.70;;;;;;5070531;28;20456;-79
2020/12/21 18:31:20;;;;;;;11.80;7.68;;;-1.10;78.70;;;;;;5070175;28;20100;-79
2020/12/21 18:33:46;;;;;;;10.60;7.10;;;-1.10;78.80;;;;;;5070040;28;20105;-78
2020/12/21 18:36:11;;;;;;;11.65;7.22;;;-1.00;78.30;;;;;;5069997;28;20095;-80
2020/12/21 18:38:37;;;;;;;9.13;6.63;;;-1.10;77.70;;;;;;5070021;28;20438;-78
2020/12/21 18:41:03;;;;;;;9.45;6.75;;;-1.00;78.80;;;;;;5068663;28;20024;-77
2020/12/21 18:43:30;;;;;;;10.50;6.85;;;-0.90;79.00;;;;;;5069816;28;20028;-78
2020/12/21 18:45:57;;;;;;;10.90;7.07;;;-0.90;77.90;;;;;;5070082;28;20056;-80
2020/12/21 18:48:23;;;;;;;11.70;7.65;;;-0.90;78.20;;;;;;5069544;28;20398;-81
2020/12/21 18:50:49;;;;;;;11.77;7.75;;;-0.90;77.80;;;;;;5069788;28;20017;-77
2020/12/21 18:53:14;;;;;;;12.07;7.82;;;-0.90;78.00;;;;;;5069121;28;20116;-80
2020/12/21 18:55:40;;;;;;;14.43;7.75;;;-0.90;77.00;;;;;;5065160;28;20029;-79
2020/12/21 18:58:06;;;;;;;26.67;12.32;;;-0.90;76.60;;;;;;5049798;28;20075;-80
2020/12/21 19:00:31;;;;;;;11.25;7.32;;;-0.90;77.10;;;;;;5040744;28;20471;-80
2020/12/21 19:02:57;;;;;;;11.63;7.32;;;-1.00;76.70;;;;;;5052431;28;20030;-79
2020/12/21 19:05:23;;;;;;;9.02;6.50;;;-1.00;76.40;;;;;;5056263;28;20033;-80
2020/12/21 19:07:48;;;;;;;8.15;5.90;;;-0.90;76.60;;;;;;5042768;28;20060;-78
2020/12/21 19:10:14;;;;;;;9.25;6.85;;;-1.00;75.80;;;;;;5036105;28;20028;-76
2020/12/21 19:12:43;;;;;;;14.38;7.70;;;-1.00;75.90;;;;;;5034833;28;20067;-76
2020/12/21 19:15:09;;;;;;;11.30;7.35;;;-0.90;76.90;;;;;;5051552;28;20026;-80
2020/12/21 19:17:36;;;;;;;13.40;7.88;;;-0.90;77.20;;;;;;5036062;28;20025;-75
2020/12/21 19:20:03;;;;;;;162.85;37.67;;;-0.90;76.30;;;;;;5035704;28;20063;-77
2020/12/21 19:22:28;;;;;;;18.42;9.30;;;-0.90;76.80;;;;;;5036253;28;20045;-77
2020/12/21 19:24:54;;;;;;;13.68;8.25;;;-0.90;76.30;;;;;;5034623;28;20483;-76
2020/12/21 19:27:20;;;;;;;15.98;9.10;;;-0.90;76.10;;;;;;5035921;28;20126;-76
2020/12/21 19:29:46;;;;;;;11.30;8.13;;;-0.90;75.90;;;;;;5035814;28;20053;-76
2020/12/21 19:32:12;;;;;;;15.52;9.23;;;-0.90;76.40;;;;;;5035660;28;20053;-76
2020/12/21 19:34:37;;;;;;;12.38;8.45;;;-0.90;76.90;;;;;;5035829;28;20476;-76
2020/12/21 19:37:03;;;;;;;14.77;9.73;;;-0.90;76.50;;;;;;5035747;28;20494;-76
2020/12/21 19:39:30;;;;;;;12.45;8.77;;;-0.80;76.70;;;;;;5036266;28;20100;-77
2020/12/21 19:41:55;;;;;;;13.07;8.40;;;-0.80;76.30;;;;;;5035734;28;20033;-78
2020/12/21 19:44:24;;;;;;;14.15;8.63;;;-0.80;76.30;;;;;;5034288;28;20025;-77
2020/12/21 19:46:49;;;;;;;11.70;8.38;;;-0.70;76.60;;;;;;5035572;28;20022;-77
2020/12/21 19:49:15;;;;;;;10.77;8.25;;;-0.80;75.20;;;;;;5035223;28;20053;-77
2020/12/21 19:51:41;;;;;;;36.03;14.68;;;-0.90;75.00;;;;;;5035418;28;20021;-76
2020/12/21 19:54:07;;;;;;;17.73;11.75;;;-0.80;75.80;;;;;;5035872;28;20464;-76
2020/12/21 19:56:40;;;;;;;18.17;11.43;;;-0.90;75.80;;;;;;5035207;28;20025;-76
2020/12/21 19:59:06;;;;;;;21.23;12.52;;;-0.90;76.40;;;;;;5035474;28;20071;-76
2020/12/21 20:01:37;;;;;;;21.10;12.85;;;-0.90;77.20;;;;;;5035066;28;20036;-76
2020/12/21 20:04:03;;;;;;;19.90;13.15;;;-0.90;77.00;;;;;;5035627;28;20468;-76
2020/12/21 20:06:28;;;;;;;22.30;13.63;;;-0.90;77.00;;;;;;5036022;28;20032;-76
2020/12/21 20:08:54;;;;;;;22.65;13.40;;;-0.90;76.90;;;;;;5035176;28;20036;-76
2020/12/21 20:11:20;;;;;;;22.75;13.15;;;-0.90;77.20;;;;;;5050712;28;20471;-77
2020/12/21 20:13:45;;;;;;;23.45;14.30;;;-0.90;77.30;;;;;;5054865;28;20021;-77
2020/12/21 20:16:12;;;;;;;23.65;15.07;;;-0.90;77.40;;;;;;5055549;28;20411;-77
2020/12/21 20:18:40;;;;;;;21.17;14.23;;;-0.90;76.90;;;;;;5055196;28;20029;-77
2020/12/21 20:21:06;;;;;;;23.55;14.10;;;-1.00;77.00;;;;;;5054983;28;20029;-77
2020/12/21 20:23:32;;;;;;;20.92;12.75;;;-1.00;77.20;;;;;;5053645;28;20056;-76
2020/12/21 20:25:57;;;;;;;20.67;13.45;;;-0.90;76.80;;;;;;5054759;28;20040;-76
2020/12/21 20:28:24;;;;;;;18.80;11.82;;;-0.90;76.30;;;;;;5055021;28;20079;-76
2020/12/21 20:30:49;;;;;;;18.98;12.85;;;-1.00;76.60;;;;;;5054601;28;20017;-76
2020/12/21 20:33:15;;;;;;;19.50;12.02;;;-1.00;76.70;;;;;;5054644;28;20498;-76
2020/12/21 20:35:41;;;;;;;18.80;12.05;;;-0.90;76.50;;;;;;5045116;28;20028;-76
2020/12/21 20:38:07;;;;;;;17.38;11.20;;;-0.90;76.40;;;;;;5034903;28;20115;-76
2020/12/21 20:40:33;;;;;;;16.73;10.80;;;-1.00;75.80;;;;;;5034537;28;20025;-76
2020/12/21 20:42:59;;;;;;;16.88;11.13;;;-1.00;76.40;;;;;;5034658;28;20418;-76
2020/12/21 20:45:26;;;;;;;14.80;9.95;;;-1.00;75.80;;;;;;5034418;28;20406;-77
2020/12/21 20:47:52;;;;;;;13.65;9.40;;;-1.00;76.00;;;;;;5034401;28;20069;-77
2020/12/21 20:50:19;;;;;;;16.75;10.63;;;-1.00;75.50;;;;;;5034841;28;20109;-77
2020/12/21 20:52:45;;;;;;;16.40;10.52;;;-1.00;75.60;;;;;;5033113;28;20036;-77
2020/12/21 20:55:11;;;;;;;21.67;13.18;;;-1.10;75.10;;;;;;5033176;28;20116;-76
2020/12/21 20:57:37;;;;;;;16.00;10.60;;;-1.10;75.40;;;;;;5034204;28;20025;-77
2020/12/21 21:00:05;;;;;;;16.88;10.75;;;-1.10;74.80;;;;;;5038194;28;20024;-77
2020/12/21 21:02:31;;;;;;;14.45;9.82;;;-1.10;74.80;;;;;;5052755;28;20025;-77
2020/12/21 21:04:57;;;;;;;13.32;9.48;;;-1.20;75.00;;;;;;5054019;28;20028;-78
2020/12/21 21:07:22;;;;;;;15.32;9.80;;;-1.20;75.50;;;;;;5053989;28;20029;-77
2020/12/21 21:09:48;;;;;;;13.63;9.48;;;-1.20;76.20;;;;;;5052650;28;20158;-77
2020/12/21 21:12:14;;;;;;;14.27;9.52;;;-1.20;75.90;;;;;;5053936;28;20021;-77
2020/12/21 21:14:39;;;;;;;21.42;12.25;;;-1.10;75.70;;;;;;5054285;28;20511;-76
2020/12/21 21:17:05;;;;;;;17.73;12.00;;;-1.10;76.20;;;;;;5053907;28;20023;-76
2020/12/21 21:19:32;;;;;;;17.92;11.77;;;-1.10;75.50;;;;;;5054099;28;20374;-77
2020/12/21 21:21:58;;;;;;;17.83;12.02;;;-1.20;76.10;;;;;;5054012;28;20039;-77
2020/12/21 21:24:24;;;;;;;20.88;12.30;;;-1.20;75.90;;;;;;5053650;28;20021;-77
2020/12/21 21:26:53;;;;;;;18.25;12.60;;;-1.20;76.30;;;;;;5053432;28;20059;-77
2020/12/21 21:29:20;;;;;;;18.60;11.85;;;-1.20;76.20;;;;;;5052407;28;20021;-77
2020/12/21 21:31:49;;;;;;;20.67;12.43;;;-1.20;76.30;;;;;;5053874;28;20020;-77
2020/12/21 21:34:17;;;;;;;18.40;12.80;;;-1.20;76.10;;;;;;5053505;28;20075;-77
2020/12/21 21:36:45;;;;;;;17.15;12.20;;;-1.20;76.50;;;;;;5052413;28;20051;-77
2020/12/21 21:39:11;;;;;;;16.90;11.98;;;-1.20;76.70;;;;;;5052371;28;20033;-77
2020/12/21 21:41:44;;;;;;;14.18;10.35;;;-1.20;76.70;;;;;;5053522;28;20021;-77
2020/12/21 21:44:10;;;;;;;18.77;11.80;;;-1.20;76.30;;;;;;5053800;28;20021;-77
2020/12/21 21:46:36;;;;;;;17.63;11.63;;;-1.30;76.30;;;;;;5053674;28;20078;-76
2020/12/21 21:49:03;;;;;;;18.45;11.70;;;-1.30;76.20;;;;;;5053277;28;20136;-76
2020/12/21 21:51:30;;;;;;;19.38;12.00;;;-1.20;76.70;;;;;;5053579;28;20550;-76
2020/12/21 21:53:56;;;;;;;15.05;10.43;;;-1.30;76.40;;;;;;5053445;28;20036;-76
2020/12/21 21:56:21;;;;;;;17.48;11.43;;;-1.30;76.30;;;;;;5053497;28;20017;-76
2020/12/21 21:58:47;;;;;;;17.75;11.27;;;-1.40;76.10;;;;;;5052056;28;20540;-76
2020/12/21 22:01:13;;;;;;;16.27;11.23;;;-1.30;77.10;;;;;;5052309;28;20039;-76
2020/12/21 22:03:38;;;;;;;16.17;10.98;;;-1.30;77.00;;;;;;5052232;28;20029;-76
2020/12/21 22:06:04;;;;;;;14.85;10.10;;;-1.30;76.50;;;;;;5053095;28;20040;-76
2020/12/21 22:08:30;;;;;;;14.80;10.00;;;-1.30;76.60;;;;;;5053328;28;20196;-76
2020/12/21 22:10:55;;;;;;;16.10;11.18;;;-1.30;76.50;;;;;;5052514;28;20078;-76
2020/12/21 22:13:21;;;;;;;13.23;9.52;;;-1.40;76.30;;;;;;5053920;28;20516;-77
2020/12/21 22:15:47;;;;;;;13.63;9.23;;;-1.30;76.80;;;;;;5053283;28;20047;-76
2020/12/21 22:18:13;;;;;;;13.65;9.63;;;-1.30;76.40;;;;;;5053601;28;20092;-76
2020/12/21 22:20:38;;;;;;;14.10;9.23;;;-1.30;76.70;;;;;;5053288;28;20032;-76
2020/12/21 22:23:04;;;;;;;15.05;10.20;;;-1.30;76.50;;;;;;5053131;28;20035;-76
2020/12/21 22:25:30;;;;;;;14.27;9.68;;;-1.30;76.60;;;;;;5052357;28;20523;-76
2020/12/21 22:27:55;;;;;;;13.50;9.45;;;-1.30;76.90;;;;;;5053414;28;20036;-76
2020/12/21 22:30:21;;;;;;;15.48;10.02;;;-1.30;76.50;;;;;;5053167;28;20025;-76
2020/12/21 22:32:47;;;;;;;15.18;10.70;;;-1.30;76.80;;;;;;5053449;28;20036;-76
2020/12/21 22:35:13;;;;;;;14.65;10.23;;;-1.30;76.50;;;;;;5054113;28;20017;-76